Lee Gilmer Memorial Airport


Codes: KGVL/GVL
Name: Lee Gilmer Memorial Airport
City: Gainesville
Country: United States
Elevation: 1276 ft.
Website:
Wikipedia:

Photos at Lee Gilmer Memorial Airport


   Photos courtesy of SpottingLog. You can add your own sightings and photos by signing up for a free trial today.



No photos found.

Weather at Lee Gilmer Memorial Airport


Time (UTC)DescriptionTempratureWindCloud coverageVisibilityPressureHumidity
13-Jun-2024 03:00Scattered Clouds24°C4 mph, E40%10000m1016hPa71%
13-Jun-2024 06:00Broken Clouds23°C4 mph, NE60%10000m1016hPa73%
13-Jun-2024 09:00Broken Clouds20°C4 mph, NE66%10000m1015hPa81%
13-Jun-2024 12:00Overcast Clouds20°C4 mph, NE85%10000m1017hPa79%
13-Jun-2024 15:00Overcast Clouds24°C4 mph, E95%10000m1017hPa65%
13-Jun-2024 18:00Overcast Clouds29°C4 mph, SE86%10000m1016hPa47%
13-Jun-2024 21:00Clear Sky31°C2 mph, SW3%10000m1014hPa38%
14-Jun-2024 00:00Scattered Clouds26°C2 mph, W26%10000m1014hPa62%
14-Jun-2024 03:00Clear Sky21°C4 mph, N7%10000m1015hPa74%
14-Jun-2024 06:00Few Clouds22°C2 mph, NE17%10000m1014hPa67%
14-Jun-2024 09:00Scattered Clouds20°C2 mph, N48%10000m1015hPa73%
14-Jun-2024 12:00Scattered Clouds22°C2 mph, N33%10000m1016hPa71%
14-Jun-2024 15:00Clear Sky29°C4 mph, W0%10000m1015hPa44%
14-Jun-2024 18:00Few Clouds33°C4 mph, W22%10000m1013hPa32%
14-Jun-2024 21:00Scattered Clouds34°C7 mph, W50%10000m1011hPa30%
15-Jun-2024 00:00Broken Clouds27°C7 mph, NW51%10000m1012hPa57%
15-Jun-2024 03:00Overcast Clouds24°C4 mph, NW85%10000m1013hPa63%
15-Jun-2024 06:00Scattered Clouds22°C4 mph, NW43%10000m1013hPa71%
15-Jun-2024 09:00Clear Sky21°C4 mph, N2%10000m1013hPa81%
15-Jun-2024 12:00Clear Sky23°C2 mph, NE1%10000m1015hPa74%
15-Jun-2024 15:00Clear Sky29°C7 mph, E0%10000m1016hPa51%
15-Jun-2024 18:00Clear Sky34°C2 mph, SE5%10000m1014hPa39%
15-Jun-2024 21:00Few Clouds34°C2 mph, S16%10000m1012hPa31%
16-Jun-2024 00:00Scattered Clouds29°C0 mph, SE27%10000m1013hPa52%
16-Jun-2024 03:00Overcast Clouds26°C7 mph, NE98%10000m1015hPa59%
16-Jun-2024 06:00Overcast Clouds24°C9 mph, NE89%10000m1016hPa69%
16-Jun-2024 09:00Overcast Clouds23°C9 mph, E98%10000m1017hPa70%
16-Jun-2024 12:00Overcast Clouds23°C9 mph, NE91%10000m1018hPa77%
16-Jun-2024 15:00Few Clouds28°C9 mph, E20%10000m1019hPa57%
16-Jun-2024 18:00Scattered Clouds32°C7 mph, SE41%10000m1018hPa45%
16-Jun-2024 21:00Broken Clouds33°C4 mph, SE55%10000m1016hPa40%
17-Jun-2024 00:00Light Rain24°C2 mph, S38%10000m1018hPa83%
17-Jun-2024 03:00Light Rain22°C2 mph, NE65%10000m1019hPa91%
17-Jun-2024 06:00Light Rain20°C4 mph, E60%10000m1020hPa98%
17-Jun-2024 09:00Light Rain20°C4 mph, E89%10000m1020hPa99%
17-Jun-2024 12:00Overcast Clouds22°C4 mph, E85%10000m1021hPa96%
17-Jun-2024 15:00Broken Clouds27°C4 mph, SE73%10000m1021hPa68%
17-Jun-2024 18:00Light Rain28°C7 mph, SE70%10000m1020hPa72%
17-Jun-2024 21:00Light Rain29°C4 mph, E19%10000m1018hPa66%
18-Jun-2024 00:00Broken Clouds25°C4 mph, NE56%10000m1018hPa80%